sensor_id;sensor_type;location;lat;lon;timestamp;P1;durP1;ratioP1;P2;durP2;ratioP2
25351;SDS011;13304;48.464;8.712;2023-04-24T00:00:05;2.08;;;0.90;;
25351;SDS011;13304;48.464;8.712;2023-04-24T00:02:32;1.40;;;0.68;;
25351;SDS011;13304;48.464;8.712;2023-04-24T00:04:58;3.15;;;0.70;;
25351;SDS011;13304;48.464;8.712;2023-04-24T00:07:27;1.70;;;0.70;;
25351;SDS011;13304;48.464;8.712;2023-04-24T00:09:53;3.30;;;0.90;;
25351;SDS011;13304;48.464;8.712;2023-04-24T00:12:19;2.00;;;0.80;;
25351;SDS011;13304;48.464;8.712;2023-04-24T00:14:45;2.00;;;0.80;;
25351;SDS011;13304;48.464;8.712;2023-04-24T00:17:11;3.10;;;0.85;;
25351;SDS011;13304;48.464;8.712;2023-04-24T00:19:37;1.98;;;0.68;;
25351;SDS011;13304;48.464;8.712;2023-04-24T00:22:02;3.42;;;1.05;;
25351;SDS011;13304;48.464;8.712;2023-04-24T00:24:28;1.77;;;0.80;;
25351;SDS011;13304;48.464;8.712;2023-04-24T00:26:54;2.75;;;0.75;;
25351;SDS011;13304;48.464;8.712;2023-04-24T00:29:20;1.83;;;0.88;;
25351;SDS011;13304;48.464;8.712;2023-04-24T00:31:48;5.13;;;0.90;;
25351;SDS011;13304;48.464;8.712;2023-04-24T00:34:14;2.80;;;0.75;;
25351;SDS011;13304;48.464;8.712;2023-04-24T00:36:39;2.20;;;0.80;;
25351;SDS011;13304;48.464;8.712;2023-04-24T00:39:05;1.00;;;0.65;;
25351;SDS011;13304;48.464;8.712;2023-04-24T00:41:33;1.60;;;0.73;;
25351;SDS011;13304;48.464;8.712;2023-04-24T00:44:01;1.45;;;0.80;;
25351;SDS011;13304;48.464;8.712;2023-04-24T00:46:27;2.15;;;0.80;;
25351;SDS011;13304;48.464;8.712;2023-04-24T00:48:53;0.52;;;0.50;;
25351;SDS011;13304;48.464;8.712;2023-04-24T00:51:21;1.98;;;0.95;;
25351;SDS011;13304;48.464;8.712;2023-04-24T00:53:47;2.47;;;0.70;;
25351;SDS011;13304;48.464;8.712;2023-04-24T00:56:12;1.80;;;0.90;;
25351;SDS011;13304;48.464;8.712;2023-04-24T00:58:39;2.47;;;0.90;;
25351;SDS011;13304;48.464;8.712;2023-04-24T01:01:05;1.60;;;0.75;;
25351;SDS011;13304;48.464;8.712;2023-04-24T01:03:32;1.48;;;0.80;;
25351;SDS011;13304;48.464;8.712;2023-04-24T01:05:58;4.30;;;0.90;;
25351;SDS011;13304;48.464;8.712;2023-04-24T01:08:24;2.05;;;0.80;;
25351;SDS011;13304;48.464;8.712;2023-04-24T01:10:53;2.60;;;0.70;;
25351;SDS011;13304;48.464;8.712;2023-04-24T01:13:20;2.10;;;0.80;;
25351;SDS011;13304;48.464;8.712;2023-04-24T01:15:46;1.05;;;0.60;;
25351;SDS011;13304;48.464;8.712;2023-04-24T01:18:13;1.35;;;0.70;;
25351;SDS011;13304;48.464;8.712;2023-04-24T01:20:39;2.50;;;0.93;;
25351;SDS011;13304;48.464;8.712;2023-04-24T01:23:09;1.33;;;0.85;;
25351;SDS011;13304;48.464;8.712;2023-04-24T01:25:35;2.53;;;0.90;;
25351;SDS011;13304;48.464;8.712;2023-04-24T01:28:02;2.38;;;0.68;;
25351;SDS011;13304;48.464;8.712;2023-04-24T01:30:28;1.17;;;0.75;;
25351;SDS011;13304;48.464;8.712;2023-04-24T01:32:55;3.45;;;1.00;;
25351;SDS011;13304;48.464;8.712;2023-04-24T01:35:21;2.47;;;0.60;;
25351;SDS011;13304;48.464;8.712;2023-04-24T01:37:47;1.65;;;0.95;;
25351;SDS011;13304;48.464;8.712;2023-04-24T01:40:12;5.47;;;0.80;;
25351;SDS011;13304;48.464;8.712;2023-04-24T01:42:40;1.50;;;0.82;;
25351;SDS011;13304;48.464;8.712;2023-04-24T01:45:06;2.95;;;0.75;;
25351;SDS011;13304;48.464;8.712;2023-04-24T01:47:35;2.78;;;0.80;;
25351;SDS011;13304;48.464;8.712;2023-04-24T01:50:02;2.55;;;0.93;;
25351;SDS011;13304;48.464;8.712;2023-04-24T01:52:28;1.90;;;0.90;;
25351;SDS011;13304;48.464;8.712;2023-04-24T01:54:56;2.15;;;0.90;;
25351;SDS011;13304;48.464;8.712;2023-04-24T01:57:24;5.53;;;1.00;;
25351;SDS011;13304;48.464;8.712;2023-04-24T01:59:51;3.15;;;0.82;;
25351;SDS011;13304;48.464;8.712;2023-04-24T02:02:17;2.35;;;0.73;;
25351;SDS011;13304;48.464;8.712;2023-04-24T02:04:42;3.50;;;0.98;;
25351;SDS011;13304;48.464;8.712;2023-04-24T02:07:08;1.77;;;0.80;;
25351;SDS011;13304;48.464;8.712;2023-04-24T02:09:34;3.67;;;1.00;;
25351;SDS011;13304;48.464;8.712;2023-04-24T02:12:00;1.50;;;0.80;;
25351;SDS011;13304;48.464;8.712;2023-04-24T02:14:26;2.90;;;0.77;;
25351;SDS011;13304;48.464;8.712;2023-04-24T02:16:51;2.03;;;0.90;;
25351;SDS011;13304;48.464;8.712;2023-04-24T02:19:18;1.45;;;0.80;;
25351;SDS011;13304;48.464;8.712;2023-04-24T02:21:44;3.35;;;1.23;;
25351;SDS011;13304;48.464;8.712;2023-04-24T02:24:10;2.13;;;0.85;;
25351;SDS011;13304;48.464;8.712;2023-04-24T02:26:36;2.42;;;1.00;;
25351;SDS011;13304;48.464;8.712;2023-04-24T02:29:01;2.45;;;1.00;;
25351;SDS011;13304;48.464;8.712;2023-04-24T02:31:27;4.03;;;1.20;;
25351;SDS011;13304;48.464;8.712;2023-04-24T02:33:53;2.10;;;0.85;;
25351;SDS011;13304;48.464;8.712;2023-04-24T02:36:23;2.90;;;1.00;;
25351;SDS011;13304;48.464;8.712;2023-04-24T02:38:49;4.30;;;1.30;;
25351;SDS011;13304;48.464;8.712;2023-04-24T02:41:15;1.90;;;1.08;;
25351;SDS011;13304;48.464;8.712;2023-04-24T02:43:40;10.02;;;1.30;;
25351;SDS011;13304;48.464;8.712;2023-04-24T02:46:06;2.97;;;1.15;;
25351;SDS011;13304;48.464;8.712;2023-04-24T02:48:32;2.88;;;1.02;;
25351;SDS011;13304;48.464;8.712;2023-04-24T02:51:00;3.25;;;0.90;;
25351;SDS011;13304;48.464;8.712;2023-04-24T02:53:26;2.17;;;1.02;;
25351;SDS011;13304;48.464;8.712;2023-04-24T02:55:51;1.17;;;0.82;;
25351;SDS011;13304;48.464;8.712;2023-04-24T02:58:17;5.03;;;0.90;;
25351;SDS011;13304;48.464;8.712;2023-04-24T03:00:45;1.42;;;0.60;;
25351;SDS011;13304;48.464;8.712;2023-04-24T03:03:12;1.23;;;0.80;;
25351;SDS011;13304;48.464;8.712;2023-04-24T03:05:37;3.53;;;0.60;;
25351;SDS011;13304;48.464;8.712;2023-04-24T03:08:03;6.35;;;0.75;;
25351;SDS011;13304;48.464;8.712;2023-04-24T03:10:29;3.67;;;0.60;;
25351;SDS011;13304;48.464;8.712;2023-04-24T03:12:55;0.77;;;0.50;;
25351;SDS011;13304;48.464;8.712;2023-04-24T03:15:21;3.40;;;0.60;;
25351;SDS011;13304;48.464;8.712;2023-04-24T03:17:47;1.58;;;0.73;;
25351;SDS011;13304;48.464;8.712;2023-04-24T03:20:13;0.95;;;0.43;;
25351;SDS011;13304;48.464;8.712;2023-04-24T03:22:39;0.82;;;0.40;;
25351;SDS011;13304;48.464;8.712;2023-04-24T03:25:05;1.85;;;0.63;;
25351;SDS011;13304;48.464;8.712;2023-04-24T03:27:33;2.38;;;0.68;;
25351;SDS011;13304;48.464;8.712;2023-04-24T03:29:59;1.15;;;0.60;;
25351;SDS011;13304;48.464;8.712;2023-04-24T03:32:25;1.88;;;0.50;;
25351;SDS011;13304;48.464;8.712;2023-04-24T03:34:51;1.70;;;0.70;;
25351;SDS011;13304;48.464;8.712;2023-04-24T03:37:17;3.08;;;0.77;;
25351;SDS011;13304;48.464;8.712;2023-04-24T03:39:43;1.15;;;0.50;;
25351;SDS011;13304;48.464;8.712;2023-04-24T03:42:08;1.63;;;0.60;;
25351;SDS011;13304;48.464;8.712;2023-04-24T03:44:34;1.92;;;0.68;;
25351;SDS011;13304;48.464;8.712;2023-04-24T03:47:01;1.90;;;0.68;;
25351;SDS011;13304;48.464;8.712;2023-04-24T03:49:26;2.42;;;0.70;;
25351;SDS011;13304;48.464;8.712;2023-04-24T03:51:52;1.00;;;0.50;;
25351;SDS011;13304;48.464;8.712;2023-04-24T03:54:18;1.17;;;0.60;;
25351;SDS011;13304;48.464;8.712;2023-04-24T03:56:44;2.92;;;0.95;;
25351;SDS011;13304;48.464;8.712;2023-04-24T03:59:10;1.50;;;0.90;;
25351;SDS011;13304;48.464;8.712;2023-04-24T04:01:36;2.92;;;1.30;;
25351;SDS011;13304;48.464;8.712;2023-04-24T04:04:05;4.95;;;1.95;;
25351;SDS011;13304;48.464;8.712;2023-04-24T04:06:32;5.07;;;2.42;;
25351;SDS011;13304;48.464;8.712;2023-04-24T04:08:58;5.65;;;1.30;;
25351;SDS011;13304;48.464;8.712;2023-04-24T04:11:24;2.30;;;1.10;;
25351;SDS011;13304;48.464;8.712;2023-04-24T04:13:50;2.88;;;1.00;;
25351;SDS011;13304;48.464;8.712;2023-04-24T04:16:16;2.83;;;0.98;;
25351;SDS011;13304;48.464;8.712;2023-04-24T04:18:45;3.05;;;1.10;;
25351;SDS011;13304;48.464;8.712;2023-04-24T04:21:11;2.58;;;0.90;;
25351;SDS011;13304;48.464;8.712;2023-04-24T04:23:37;2.20;;;0.98;;
25351;SDS011;13304;48.464;8.712;2023-04-24T04:26:03;5.32;;;0.82;;
25351;SDS011;13304;48.464;8.712;2023-04-24T04:28:29;2.00;;;0.90;;
25351;SDS011;13304;48.464;8.712;2023-04-24T04:30:56;1.13;;;0.70;;
25351;SDS011;13304;48.464;8.712;2023-04-24T04:33:23;1.20;;;0.77;;
25351;SDS011;13304;48.464;8.712;2023-04-24T04:35:49;2.10;;;0.88;;
25351;SDS011;13304;48.464;8.712;2023-04-24T04:38:18;1.75;;;1.42;;
25351;SDS011;13304;48.464;8.712;2023-04-24T04:40:45;2.03;;;1.15;;
25351;SDS011;13304;48.464;8.712;2023-04-24T04:43:13;1.58;;;1.05;;
25351;SDS011;13304;48.464;8.712;2023-04-24T04:45:39;2.08;;;1.02;;
25351;SDS011;13304;48.464;8.712;2023-04-24T04:48:08;1.52;;;1.05;;
25351;SDS011;13304;48.464;8.712;2023-04-24T04:50:35;2.78;;;0.90;;
25351;SDS011;13304;48.464;8.712;2023-04-24T04:53:03;2.17;;;0.80;;
25351;SDS011;13304;48.464;8.712;2023-04-24T04:55:29;3.38;;;1.10;;
25351;SDS011;13304;48.464;8.712;2023-04-24T04:57:55;2.20;;;1.00;;
25351;SDS011;13304;48.464;8.712;2023-04-24T05:00:21;2.40;;;1.10;;
25351;SDS011;13304;48.464;8.712;2023-04-24T05:02:49;2.40;;;1.00;;
25351;SDS011;13304;48.464;8.712;2023-04-24T05:05:15;2.13;;;1.27;;
25351;SDS011;13304;48.464;8.712;2023-04-24T05:07:42;1.67;;;0.90;;
25351;SDS011;13304;48.464;8.712;2023-04-24T05:10:08;3.83;;;1.15;;
25351;SDS011;13304;48.464;8.712;2023-04-24T05:12:34;2.60;;;1.33;;
25351;SDS011;13304;48.464;8.712;2023-04-24T05:15:00;2.47;;;1.15;;
25351;SDS011;13304;48.464;8.712;2023-04-24T05:17:25;2.42;;;1.10;;
25351;SDS011;13304;48.464;8.712;2023-04-24T05:19:51;3.67;;;1.40;;
25351;SDS011;13304;48.464;8.712;2023-04-24T05:22:17;2.20;;;1.38;;
25351;SDS011;13304;48.464;8.712;2023-04-24T05:24:45;3.93;;;1.50;;
25351;SDS011;13304;48.464;8.712;2023-04-24T05:27:12;2.25;;;1.30;;
25351;SDS011;13304;48.464;8.712;2023-04-24T05:29:38;3.15;;;1.90;;
25351;SDS011;13304;48.464;8.712;2023-04-24T05:32:03;2.17;;;1.17;;
25351;SDS011;13304;48.464;8.712;2023-04-24T05:34:29;3.13;;;1.55;;
25351;SDS011;13304;48.464;8.712;2023-04-24T05:36:55;4.15;;;1.35;;
25351;SDS011;13304;48.464;8.712;2023-04-24T05:39:21;2.03;;;1.38;;
25351;SDS011;13304;48.464;8.712;2023-04-24T05:41:47;7.65;;;1.60;;
25351;SDS011;13304;48.464;8.712;2023-04-24T05:44:13;4.00;;;1.20;;
25351;SDS011;13304;48.464;8.712;2023-04-24T05:46:38;6.20;;;3.10;;
25351;SDS011;13304;48.464;8.712;2023-04-24T05:49:04;6.50;;;1.80;;
25351;SDS011;13304;48.464;8.712;2023-04-24T05:51:30;5.90;;;1.67;;
25351;SDS011;13304;48.464;8.712;2023-04-24T05:53:56;3.60;;;1.88;;
25351;SDS011;13304;48.464;8.712;2023-04-24T05:56:22;2.38;;;1.60;;
25351;SDS011;13304;48.464;8.712;2023-04-24T05:58:48;3.30;;;1.83;;
25351;SDS011;13304;48.464;8.712;2023-04-24T06:01:14;2.20;;;1.60;;
25351;SDS011;13304;48.464;8.712;2023-04-24T06:03:40;2.55;;;1.65;;
25351;SDS011;13304;48.464;8.712;2023-04-24T06:06:07;3.08;;;1.65;;
25351;SDS011;13304;48.464;8.712;2023-04-24T06:08:33;2.60;;;1.48;;
25351;SDS011;13304;48.464;8.712;2023-04-24T06:11:02;3.47;;;1.88;;
25351;SDS011;13304;48.464;8.712;2023-04-24T06:13:27;5.25;;;1.80;;
25351;SDS011;13304;48.464;8.712;2023-04-24T06:15:53;3.40;;;1.83;;
25351;SDS011;13304;48.464;8.712;2023-04-24T06:18:21;2.15;;;1.85;;
25351;SDS011;13304;48.464;8.712;2023-04-24T06:20:47;4.35;;;1.98;;
25351;SDS011;13304;48.464;8.712;2023-04-24T06:23:13;2.85;;;1.90;;
25351;SDS011;13304;48.464;8.712;2023-04-24T06:25:38;2.63;;;1.60;;
25351;SDS011;13304;48.464;8.712;2023-04-24T06:28:04;4.30;;;2.00;;
25351;SDS011;13304;48.464;8.712;2023-04-24T06:30:30;3.85;;;1.90;;
25351;SDS011;13304;48.464;8.712;2023-04-24T06:32:56;4.88;;;2.45;;
25351;SDS011;13304;48.464;8.712;2023-04-24T06:35:22;3.33;;;2.45;;
25351;SDS011;13304;48.464;8.712;2023-04-24T06:37:48;7.22;;;2.25;;
25351;SDS011;13304;48.464;8.712;2023-04-24T06:40:14;3.88;;;2.25;;
25351;SDS011;13304;48.464;8.712;2023-04-24T06:42:40;7.15;;;2.40;;
25351;SDS011;13304;48.464;8.712;2023-04-24T06:45:05;4.25;;;2.47;;
25351;SDS011;13304;48.464;8.712;2023-04-24T06:47:31;3.20;;;2.05;;
25351;SDS011;13304;48.464;8.712;2023-04-24T06:49:57;3.92;;;1.80;;
25351;SDS011;13304;48.464;8.712;2023-04-24T06:52:23;2.42;;;1.70;;
25351;SDS011;13304;48.464;8.712;2023-04-24T06:54:49;5.45;;;1.60;;
25351;SDS011;13304;48.464;8.712;2023-04-24T06:57:15;1.42;;;1.17;;
25351;SDS011;13304;48.464;8.712;2023-04-24T06:59:41;3.20;;;1.80;;
25351;SDS011;13304;48.464;8.712;2023-04-24T07:02:07;3.90;;;2.22;;
25351;SDS011;13304;48.464;8.712;2023-04-24T07:04:35;2.95;;;1.52;;
25351;SDS011;13304;48.464;8.712;2023-04-24T07:07:01;2.78;;;1.65;;
25351;SDS011;13304;48.464;8.712;2023-04-24T07:09:27;3.63;;;1.65;;
25351;SDS011;13304;48.464;8.712;2023-04-24T07:11:53;3.40;;;1.92;;
25351;SDS011;13304;48.464;8.712;2023-04-24T07:14:21;3.97;;;1.83;;
25351;SDS011;13304;48.464;8.712;2023-04-24T07:16:47;3.45;;;1.50;;
25351;SDS011;13304;48.464;8.712;2023-04-24T07:19:13;2.65;;;1.70;;
25351;SDS011;13304;48.464;8.712;2023-04-24T07:21:39;2.33;;;1.50;;
25351;SDS011;13304;48.464;8.712;2023-04-24T07:24:05;2.20;;;1.30;;
25351;SDS011;13304;48.464;8.712;2023-04-24T07:26:35;3.22;;;1.50;;
25351;SDS011;13304;48.464;8.712;2023-04-24T07:29:02;4.13;;;1.40;;
25351;SDS011;13304;48.464;8.712;2023-04-24T07:31:27;4.95;;;1.63;;
25351;SDS011;13304;48.464;8.712;2023-04-24T07:33:53;3.17;;;1.65;;
25351;SDS011;13304;48.464;8.712;2023-04-24T07:36:19;1.70;;;1.17;;
25351;SDS011;13304;48.464;8.712;2023-04-24T07:38:45;3.60;;;1.48;;
25351;SDS011;13304;48.464;8.712;2023-04-24T07:41:14;4.10;;;1.58;;
25351;SDS011;13304;48.464;8.712;2023-04-24T07:43:40;3.80;;;1.55;;
25351;SDS011;13304;48.464;8.712;2023-04-24T07:46:07;5.97;;;1.75;;
25351;SDS011;13304;48.464;8.712;2023-04-24T07:48:33;4.35;;;1.63;;
25351;SDS011;13304;48.464;8.712;2023-04-24T07:50:59;3.85;;;1.77;;
25351;SDS011;13304;48.464;8.712;2023-04-24T07:53:24;2.38;;;1.45;;
25351;SDS011;13304;48.464;8.712;2023-04-24T07:55:50;8.00;;;1.50;;
25351;SDS011;13304;48.464;8.712;2023-04-24T07:58:16;2.42;;;1.50;;
25351;SDS011;13304;48.464;8.712;2023-04-24T08:00:42;2.63;;;1.50;;
25351;SDS011;13304;48.464;8.712;2023-04-24T08:03:08;4.32;;;1.80;;
25351;SDS011;13304;48.464;8.712;2023-04-24T08:05:33;6.35;;;2.13;;
25351;SDS011;13304;48.464;8.712;2023-04-24T08:07:59;2.85;;;1.58;;
25351;SDS011;13304;48.464;8.712;2023-04-24T08:10:25;4.95;;;1.80;;
25351;SDS011;13304;48.464;8.712;2023-04-24T08:12:51;5.32;;;2.20;;
25351;SDS011;13304;48.464;8.712;2023-04-24T08:15:17;12.10;;;1.80;;
25351;SDS011;13304;48.464;8.712;2023-04-24T08:17:43;4.38;;;1.40;;
25351;SDS011;13304;48.464;8.712;2023-04-24T08:20:10;3.50;;;1.70;;
25351;SDS011;13304;48.464;8.712;2023-04-24T08:22:39;3.85;;;1.80;;
25351;SDS011;13304;48.464;8.712;2023-04-24T08:25:06;3.70;;;1.55;;
25351;SDS011;13304;48.464;8.712;2023-04-24T08:27:32;4.78;;;1.90;;
25351;SDS011;13304;48.464;8.712;2023-04-24T08:29:58;3.40;;;1.60;;
25351;SDS011;13304;48.464;8.712;2023-04-24T08:32:25;2.63;;;1.42;;
25351;SDS011;13304;48.464;8.712;2023-04-24T08:34:54;4.18;;;1.75;;
25351;SDS011;13304;48.464;8.712;2023-04-24T08:37:21;5.72;;;1.60;;
25351;SDS011;13304;48.464;8.712;2023-04-24T08:39:51;3.63;;;1.40;;
25351;SDS011;13304;48.464;8.712;2023-04-24T08:42:17;5.05;;;1.90;;
25351;SDS011;13304;48.464;8.712;2023-04-24T08:44:44;3.90;;;1.60;;
25351;SDS011;13304;48.464;8.712;2023-04-24T08:47:11;5.57;;;1.90;;
25351;SDS011;13304;48.464;8.712;2023-04-24T08:49:37;3.72;;;1.73;;
25351;SDS011;13304;48.464;8.712;2023-04-24T08:52:04;8.30;;;1.70;;
25351;SDS011;13304;48.464;8.712;2023-04-24T08:54:31;3.97;;;1.30;;
25351;SDS011;13304;48.464;8.712;2023-04-24T08:57:00;4.15;;;1.55;;
25351;SDS011;13304;48.464;8.712;2023-04-24T08:59:30;7.07;;;1.63;;
25351;SDS011;13304;48.464;8.712;2023-04-24T09:01:56;6.05;;;1.63;;
25351;SDS011;13304;48.464;8.712;2023-04-24T09:04:23;4.05;;;1.63;;
25351;SDS011;13304;48.464;8.712;2023-04-24T09:06:58;7.00;;;1.65;;
25351;SDS011;13304;48.464;8.712;2023-04-24T09:09:25;2.63;;;1.50;;
25351;SDS011;13304;48.464;8.712;2023-04-24T09:11:51;7.07;;;1.95;;
25351;SDS011;13304;48.464;8.712;2023-04-24T09:14:20;2.72;;;1.40;;
25351;SDS011;13304;48.464;8.712;2023-04-24T09:16:46;5.10;;;1.40;;
25351;SDS011;13304;48.464;8.712;2023-04-24T09:19:13;2.97;;;1.40;;
25351;SDS011;13304;48.464;8.712;2023-04-24T09:21:39;3.13;;;1.38;;
25351;SDS011;13304;48.464;8.712;2023-04-24T09:24:07;3.33;;;1.60;;
25351;SDS011;13304;48.464;8.712;2023-04-24T09:26:57;5.13;;;1.10;;
25351;SDS011;13304;48.464;8.712;2023-04-24T09:29:29;4.28;;;1.58;;
25351;SDS011;13304;48.464;8.712;2023-04-24T09:31:57;3.47;;;1.65;;
25351;SDS011;13304;48.464;8.712;2023-04-24T09:34:23;2.22;;;1.50;;
25351;SDS011;13304;48.464;8.712;2023-04-24T09:36:51;4.38;;;1.70;;
25351;SDS011;13304;48.464;8.712;2023-04-24T09:39:17;3.05;;;1.33;;
25351;SDS011;13304;48.464;8.712;2023-04-24T09:44:24;4.10;;;1.30;;
25351;SDS011;13304;48.464;8.712;2023-04-24T09:46:56;2.47;;;1.30;;
25351;SDS011;13304;48.464;8.712;2023-04-24T09:49:24;3.95;;;1.20;;
25351;SDS011;13304;48.464;8.712;2023-04-24T09:51:51;4.72;;;1.30;;
25351;SDS011;13304;48.464;8.712;2023-04-24T09:54:21;3.80;;;1.30;;
25351;SDS011;13304;48.464;8.712;2023-04-24T09:56:50;4.65;;;1.27;;
25351;SDS011;13304;48.464;8.712;2023-04-24T09:59:17;1.67;;;1.30;;
25351;SDS011;13304;48.464;8.712;2023-04-24T10:01:44;3.47;;;1.45;;
25351;SDS011;13304;48.464;8.712;2023-04-24T10:04:20;3.60;;;1.42;;
25351;SDS011;13304;48.464;8.712;2023-04-24T10:06:48;4.85;;;1.30;;
25351;SDS011;13304;48.464;8.712;2023-04-24T10:09:15;2.25;;;1.13;;
25351;SDS011;13304;48.464;8.712;2023-04-24T10:11:42;3.20;;;1.50;;
25351;SDS011;13304;48.464;8.712;2023-04-24T10:14:13;5.57;;;1.60;;
25351;SDS011;13304;48.464;8.712;2023-04-24T10:16:43;4.80;;;1.45;;
25351;SDS011;13304;48.464;8.712;2023-04-24T10:19:11;4.40;;;1.20;;
25351;SDS011;13304;48.464;8.712;2023-04-24T10:21:38;4.57;;;1.42;;
25351;SDS011;13304;48.464;8.712;2023-04-24T10:24:10;2.13;;;1.50;;
25351;SDS011;13304;48.464;8.712;2023-04-24T10:26:36;2.92;;;1.52;;
25351;SDS011;13304;48.464;8.712;2023-04-24T10:29:03;1.98;;;1.30;;
25351;SDS011;13304;48.464;8.712;2023-04-24T10:31:34;3.58;;;1.50;;
25351;SDS011;13304;48.464;8.712;2023-04-24T10:34:02;4.40;;;1.38;;
25351;SDS011;13304;48.464;8.712;2023-04-24T10:36:29;6.00;;;1.70;;
25351;SDS011;13304;48.464;8.712;2023-04-24T10:38:57;2.97;;;1.20;;
25351;SDS011;13304;48.464;8.712;2023-04-24T10:41:26;2.78;;;1.00;;
25351;SDS011;13304;48.464;8.712;2023-04-24T10:44:13;4.05;;;1.40;;
25351;SDS011;13304;48.464;8.712;2023-04-24T10:46:43;2.30;;;1.02;;
25351;SDS011;13304;48.464;8.712;2023-04-24T10:49:10;3.85;;;1.00;;
25351;SDS011;13304;48.464;8.712;2023-04-24T10:51:49;4.10;;;1.17;;
25351;SDS011;13304;48.464;8.712;2023-04-24T10:54:40;1.35;;;0.98;;
25351;SDS011;13304;48.464;8.712;2023-04-24T10:59:50;1.63;;;1.02;;
25351;SDS011;13304;48.464;8.712;2023-04-24T11:02:37;1.33;;;1.00;;
25351;SDS011;13304;48.464;8.712;2023-04-24T11:05:05;2.65;;;1.00;;
25351;SDS011;13304;48.464;8.712;2023-04-24T11:10:37;1.40;;;1.10;;
25351;SDS011;13304;48.464;8.712;2023-04-24T11:13:04;2.95;;;1.10;;
25351;SDS011;13304;48.464;8.712;2023-04-24T11:15:30;2.00;;;1.10;;
25351;SDS011;13304;48.464;8.712;2023-04-24T11:17:55;1.95;;;1.10;;
25351;SDS011;13304;48.464;8.712;2023-04-24T11:20:22;2.92;;;0.95;;
25351;SDS011;13304;48.464;8.712;2023-04-24T11:22:50;1.40;;;0.88;;
25351;SDS011;13304;48.464;8.712;2023-04-24T11:25:22;2.28;;;1.00;;
25351;SDS011;13304;48.464;8.712;2023-04-24T11:27:49;3.38;;;1.00;;
25351;SDS011;13304;48.464;8.712;2023-04-24T11:30:28;1.58;;;1.00;;
25351;SDS011;13304;48.464;8.712;2023-04-24T11:32:54;2.05;;;0.95;;
25351;SDS011;13304;48.464;8.712;2023-04-24T11:35:30;1.25;;;0.77;;
25351;SDS011;13304;48.464;8.712;2023-04-24T11:38:02;2.78;;;0.98;;
25351;SDS011;13304;48.464;8.712;2023-04-24T11:40:29;3.03;;;0.90;;
25351;SDS011;13304;48.464;8.712;2023-04-24T11:42:55;1.52;;;1.00;;
25351;SDS011;13304;48.464;8.712;2023-04-24T11:45:27;3.58;;;0.77;;
25351;SDS011;13304;48.464;8.712;2023-04-24T11:47:54;2.05;;;0.95;;
25351;SDS011;13304;48.464;8.712;2023-04-24T11:50:24;2.28;;;1.10;;
25351;SDS011;13304;48.464;8.712;2023-04-24T11:52:52;1.52;;;0.90;;
25351;SDS011;13304;48.464;8.712;2023-04-24T11:57:44;2.47;;;0.90;;
25351;SDS011;13304;48.464;8.712;2023-04-24T12:00:30;3.67;;;1.13;;
25351;SDS011;13304;48.464;8.712;2023-04-24T12:03:08;1.80;;;1.10;;
25351;SDS011;13304;48.464;8.712;2023-04-24T12:05:37;7.72;;;1.40;;
25351;SDS011;13304;48.464;8.712;2023-04-24T12:08:04;2.88;;;1.27;;
25351;SDS011;13304;48.464;8.712;2023-04-24T12:10:31;2.72;;;1.42;;
25351;SDS011;13304;48.464;8.712;2023-04-24T12:12:58;5.93;;;2.00;;
25351;SDS011;13304;48.464;8.712;2023-04-24T12:15:27;4.80;;;1.27;;
25351;SDS011;13304;48.464;8.712;2023-04-24T12:17:54;8.32;;;1.42;;
25351;SDS011;13304;48.464;8.712;2023-04-24T12:20:31;3.63;;;1.33;;
25351;SDS011;13304;48.464;8.712;2023-04-24T12:22:59;4.20;;;1.45;;
25351;SDS011;13304;48.464;8.712;2023-04-24T12:25:26;2.05;;;1.00;;
25351;SDS011;13304;48.464;8.712;2023-04-24T12:27:54;3.78;;;1.38;;
25351;SDS011;13304;48.464;8.712;2023-04-24T12:30:20;1.50;;;1.08;;
25351;SDS011;13304;48.464;8.712;2023-04-24T12:32:52;3.78;;;1.67;;
25351;SDS011;13304;48.464;8.712;2023-04-24T12:35:20;2.03;;;1.13;;
25351;SDS011;13304;48.464;8.712;2023-04-24T12:37:47;2.50;;;1.20;;
25351;SDS011;13304;48.464;8.712;2023-04-24T12:40:14;3.88;;;1.23;;
25351;SDS011;13304;48.464;8.712;2023-04-24T12:42:49;2.22;;;1.40;;
25351;SDS011;13304;48.464;8.712;2023-04-24T12:45:16;3.15;;;1.30;;
25351;SDS011;13304;48.464;8.712;2023-04-24T12:47:43;2.85;;;1.40;;
25351;SDS011;13304;48.464;8.712;2023-04-24T12:50:10;4.32;;;1.35;;
25351;SDS011;13304;48.464;8.712;2023-04-24T12:52:41;2.47;;;1.40;;
25351;SDS011;13304;48.464;8.712;2023-04-24T12:55:07;3.42;;;1.67;;
25351;SDS011;13304;48.464;8.712;2023-04-24T12:57:34;1.95;;;1.33;;
25351;SDS011;13304;48.464;8.712;2023-04-24T13:00:01;2.65;;;1.38;;
25351;SDS011;13304;48.464;8.712;2023-04-24T13:02:28;2.28;;;1.13;;
25351;SDS011;13304;48.464;8.712;2023-04-24T13:04:58;3.85;;;1.45;;
25351;SDS011;13304;48.464;8.712;2023-04-24T13:07:24;2.67;;;1.40;;
25351;SDS011;13304;48.464;8.712;2023-04-24T13:09:51;3.80;;;1.20;;
25351;SDS011;13304;48.464;8.712;2023-04-24T13:12:18;1.70;;;1.33;;
25351;SDS011;13304;48.464;8.712;2023-04-24T13:14:45;3.00;;;1.60;;
25351;SDS011;13304;48.464;8.712;2023-04-24T13:17:10;2.15;;;1.30;;
25351;SDS011;13304;48.464;8.712;2023-04-24T13:19:38;4.55;;;1.60;;
25351;SDS011;13304;48.464;8.712;2023-04-24T13:22:05;2.88;;;1.23;;
25351;SDS011;13304;48.464;8.712;2023-04-24T13:24:32;1.75;;;1.40;;
25351;SDS011;13304;48.464;8.712;2023-04-24T13:26:58;2.78;;;1.42;;
25351;SDS011;13304;48.464;8.712;2023-04-24T13:29:25;2.88;;;1.40;;
25351;SDS011;13304;48.464;8.712;2023-04-24T13:31:51;2.38;;;1.20;;
25351;SDS011;13304;48.464;8.712;2023-04-24T13:34:19;5.60;;;1.58;;
25351;SDS011;13304;48.464;8.712;2023-04-24T13:36:46;3.13;;;1.55;;
25351;SDS011;13304;48.464;8.712;2023-04-24T13:39:11;3.60;;;1.50;;
25351;SDS011;13304;48.464;8.712;2023-04-24T13:41:37;2.15;;;1.40;;
25351;SDS011;13304;48.464;8.712;2023-04-24T13:44:04;2.30;;;1.30;;
25351;SDS011;13304;48.464;8.712;2023-04-24T13:46:31;2.65;;;1.40;;
25351;SDS011;13304;48.464;8.712;2023-04-24T13:48:57;4.10;;;1.38;;
25351;SDS011;13304;48.464;8.712;2023-04-24T13:51:24;3.25;;;1.40;;
25351;SDS011;13304;48.464;8.712;2023-04-24T13:53:52;2.75;;;1.25;;
25351;SDS011;13304;48.464;8.712;2023-04-24T13:56:18;2.63;;;1.23;;
25351;SDS011;13304;48.464;8.712;2023-04-24T13:58:45;3.58;;;1.50;;
25351;SDS011;13304;48.464;8.712;2023-04-24T14:01:11;2.25;;;1.27;;
25351;SDS011;13304;48.464;8.712;2023-04-24T14:03:37;3.42;;;1.80;;
25351;SDS011;13304;48.464;8.712;2023-04-24T14:06:03;2.58;;;1.15;;
25351;SDS011;13304;48.464;8.712;2023-04-24T14:08:29;2.45;;;1.30;;
25351;SDS011;13304;48.464;8.712;2023-04-24T14:10:55;4.47;;;1.65;;
25351;SDS011;13304;48.464;8.712;2023-04-24T14:13:21;3.72;;;1.30;;
25351;SDS011;13304;48.464;8.712;2023-04-24T14:15:47;5.68;;;1.60;;
25351;SDS011;13304;48.464;8.712;2023-04-24T14:18:12;4.63;;;1.40;;
25351;SDS011;13304;48.464;8.712;2023-04-24T14:20:38;3.90;;;1.20;;
25351;SDS011;13304;48.464;8.712;2023-04-24T14:23:04;4.35;;;1.55;;
25351;SDS011;13304;48.464;8.712;2023-04-24T14:25:30;2.55;;;1.33;;
25351;SDS011;13304;48.464;8.712;2023-04-24T14:27:55;2.03;;;1.25;;
25351;SDS011;13304;48.464;8.712;2023-04-24T14:30:22;2.58;;;1.27;;
25351;SDS011;13304;48.464;8.712;2023-04-24T14:32:48;1.98;;;1.17;;
25351;SDS011;13304;48.464;8.712;2023-04-24T14:35:14;2.45;;;1.20;;
25351;SDS011;13304;48.464;8.712;2023-04-24T14:37:40;1.67;;;1.30;;
25351;SDS011;13304;48.464;8.712;2023-04-24T14:40:07;2.55;;;1.38;;
25351;SDS011;13304;48.464;8.712;2023-04-24T14:42:34;2.83;;;1.20;;
25351;SDS011;13304;48.464;8.712;2023-04-24T14:45:00;4.05;;;1.25;;
25351;SDS011;13304;48.464;8.712;2023-04-24T14:47:26;6.25;;;1.30;;
25351;SDS011;13304;48.464;8.712;2023-04-24T14:49:52;3.25;;;1.40;;
25351;SDS011;13304;48.464;8.712;2023-04-24T14:52:18;4.38;;;1.55;;
25351;SDS011;13304;48.464;8.712;2023-04-24T14:54:45;3.30;;;1.70;;
25351;SDS011;13304;48.464;8.712;2023-04-24T14:57:10;1.40;;;1.30;;